This is the latest recevied weather packets stored in our database for station/object YO8RXT-3. If no packets are shown the sender has not sent any weather packets the latest 10 day(s).
| Time | Temp. | Humidity | Pressure | Rain* | Wind** | Luminosity | Snow |
|---|---|---|---|---|---|---|---|
| 1777336502 | 6.11° C | 53% | 1019 hPa | - | - | - | - |
| 1777334707 | 6.11° C | - | - | - | - | - | - |
| 1777332904 | 6.11° C | 46% | 1019 hPa | - | - | - | - |
| 1777331104 | 7.78° C | 37% | 1019 hPa | - | - | - | - |
| 1777329302 | 7.22° C | 39% | 1019 hPa | - | - | - | - |
| 1777327504 | 7.22° C | 37% | 1019 hPa | - | - | - | - |
| 1777325703 | 7.78° C | 34% | 1020 hPa | - | - | - | - |
| 1777323903 | 8.89° C | 32% | 1020 hPa | - | - | - | - |
| 1777322103 | 7.78° C | 37% | 1020 hPa | - | - | - | - |
| 1777320302 | 8.89° C | 32% | 1020 hPa | - | - | - | - |
| 1777318503 | 10° C | 30% | 1020 hPa | - | - | - | - |
| 1777316703 | 10° C | 30% | 1020 hPa | - | - | - | - |
| 1777314902 | 10° C | 30% | 1020 hPa | - | - | - | - |
| 1777313102 | 11.11° C | 26% | 1020 hPa | - | - | - | - |
| 1777311302 | 11.11° C | 28% | 1019 hPa | - | - | - | - |
| 1777309502 | 12.78° C | 24% | 1019 hPa | - | - | - | - |
| 1777307703 | 12.78° C | 23% | 1019 hPa | - | - | - | - |
| 1777305902 | 13.89° C | 21% | 1019 hPa | - | - | - | - |
| 1777304103 | 13.89° C | 21% | 1019 hPa | - | - | - | - |
| 1777302303 | 13.89° C | 23% | 1019 hPa | - | - | - | - |
| 1777300502 | 13.89° C | 21% | 1019 hPa | - | - | - | - |
| 1777298703 | 13.89° C | 25% | 1020 hPa | - | - | - | - |
| 1777296902 | 13.89° C | 20% | 1020 hPa | - | - | - | - |
| 1777295102 | 13.89° C | 20% | 1020 hPa | - | - | - | - |
| 1777293302 | 13.89° C | 21% | 1021 hPa | - | - | - | - |
* Rain since midnight (hover to see other rain measurements)
** Current wind speed in m/s (hover to see current wind gust speed)